Time;durP1;ratioP1;P1;durP2;ratioP2;P2;SDS_P1;SDS_P2;PMS_P1;PMS_P2;Temp;Humidity;BMP_temperature;BMP_pressure;BME280_temperature;BME280_humidity;BME280_pressure;Samples;Min_cycle;Max_cycle;Signal;HPM_P1;HPM_P2
2023/07/01 00:01:19;;;;;;;1.40;1.30;;;24.10;42.80;;;;;;5016703;28;20274;-78
2023/07/01 00:03:45;;;;;;;1.67;1.57;;;24.10;42.80;;;;;;5012659;28;20678;-78
2023/07/01 00:06:12;;;;;;;1.70;1.60;;;24.10;42.80;;;;;;5013573;28;20244;-77
2023/07/01 00:08:37;;;;;;;1.63;1.53;;;24.10;42.80;;;;;;5005248;28;20472;-78
2023/07/01 00:11:03;;;;;;;1.73;1.63;;;24.10;42.80;;;;;;5012326;28;20469;-77
2023/07/01 00:13:28;;;;;;;1.70;1.60;;;24.10;42.90;;;;;;4999054;28;20256;-77
2023/07/01 00:15:55;;;;;;;1.70;1.60;;;24.10;42.80;;;;;;5019195;28;20681;-77
2023/07/01 00:18:21;;;;;;;1.60;1.50;;;24.10;42.90;;;;;;5013639;28;20765;-78
2023/07/01 00:20:46;;;;;;;1.70;1.60;;;24.10;42.90;;;;;;5011759;28;20464;-77
2023/07/01 00:23:12;;;;;;;1.70;1.60;;;24.10;42.80;;;;;;5016249;28;20229;-77
2023/07/01 00:25:37;;;;;;;2.00;1.90;;;24.00;42.70;;;;;;5010120;28;20632;-77
2023/07/01 00:28:03;;;;;;;1.60;1.50;;;24.10;42.80;;;;;;5008735;28;20227;-77
2023/07/01 00:30:29;;;;;;;1.57;1.47;;;24.10;42.80;;;;;;5011632;28;20211;-77
2023/07/01 00:32:54;;;;;;;1.70;1.60;;;24.00;42.70;;;;;;5017715;28;20640;-77
2023/07/01 00:35:20;;;;;;;2.87;1.77;;;24.10;42.80;;;;;;5009281;28;20219;-78
2023/07/01 00:37:45;;;;;;;3.93;1.70;;;24.10;42.80;;;;;;5018998;28;20353;-77
2023/07/01 00:40:11;;;;;;;1.70;1.60;;;24.00;42.70;;;;;;5009921;28;20218;-77
2023/07/01 00:42:37;;;;;;;1.80;1.70;;;24.10;42.80;;;;;;5014468;28;20690;-77
2023/07/01 00:45:03;;;;;;;1.93;1.83;;;24.10;42.80;;;;;;5004476;28;20273;-77
2023/07/01 00:47:29;;;;;;;1.60;1.50;;;24.00;42.70;;;;;;5011045;28;20305;-77
2023/07/01 00:49:56;;;;;;;1.70;1.60;;;24.10;42.80;;;;;;5003889;28;20459;-77
2023/07/01 00:52:21;;;;;;;2.57;1.60;;;24.10;42.80;;;;;;5014746;28;20607;-77
2023/07/01 00:54:47;;;;;;;1.80;1.70;;;24.00;42.70;;;;;;5017214;28;20440;-77
2023/07/01 00:57:13;;;;;;;1.93;1.70;;;24.10;42.80;;;;;;5018911;28;20219;-77
2023/07/01 00:59:39;;;;;;;1.70;1.60;;;24.10;42.80;;;;;;5020614;28;20467;-77
2023/07/01 01:02:19;;;;;;;1.70;1.60;;;24.00;42.70;;;;;;5027169;28;20314;-77
2023/07/01 01:04:58;;;;;;;1.60;1.50;;;24.10;42.80;;;;;;5010503;28;20309;-77
2023/07/01 01:07:32;;;;;;;1.90;1.80;;;24.00;42.70;;;;;;5021506;28;20430;-77
2023/07/01 01:10:05;;;;;;;1.70;1.60;;;24.00;42.80;;;;;;5018876;28;20511;-77
2023/07/01 01:12:33;;;;;;;1.93;1.73;;;24.10;42.80;;;;;;5011857;28;20455;-77
2023/07/01 01:15:01;;;;;;;1.53;1.43;;;24.10;42.80;;;;;;5022242;28;20817;-77
2023/07/01 01:17:31;;;;;;;1.60;1.50;;;24.00;42.70;;;;;;5018845;28;20463;-77
2023/07/01 01:20:00;;;;;;;1.93;1.83;;;24.00;42.70;;;;;;5020628;28;20530;-77
2023/07/01 01:22:36;;;;;;;1.60;1.50;;;24.00;42.70;;;;;;5018552;28;21185;-78
2023/07/01 01:25:05;;;;;;;1.50;1.40;;;24.00;42.70;;;;;;5008071;28;20623;-77
2023/07/01 01:27:40;;;;;;;1.60;1.50;;;24.00;42.70;;;;;;5010165;28;20513;-77
2023/07/01 01:30:06;;;;;;;1.73;1.63;;;24.00;42.70;;;;;;5020666;28;21445;-77
2023/07/01 01:32:35;;;;;;;1.70;1.60;;;24.00;42.80;;;;;;5004382;28;20455;-77
2023/07/01 01:35:01;;;;;;;1.70;1.60;;;24.00;42.70;;;;;;5014086;28;20552;-77
2023/07/01 01:37:36;;;;;;;1.70;1.60;;;24.00;42.70;;;;;;5024743;28;20824;-79
2023/07/01 01:40:14;;;;;;;1.73;1.63;;;24.00;42.70;;;;;;5023643;28;20493;-78
2023/07/01 01:42:43;;;;;;;1.70;1.60;;;24.00;42.70;;;;;;5019862;28;20459;-77
2023/07/01 01:45:09;;;;;;;1.73;1.63;;;24.00;42.70;;;;;;5020611;28;20467;-77
2023/07/01 01:47:36;;;;;;;1.80;1.70;;;24.00;42.70;;;;;;5019632;28;20456;-77
2023/07/01 01:50:07;;;;;;;1.50;1.40;;;24.00;42.70;;;;;;5017497;28;20831;-77
2023/07/01 01:52:33;;;;;;;1.87;1.77;;;24.00;42.70;;;;;;5021281;28;20566;-78
2023/07/01 01:55:00;;;;;;;1.70;1.60;;;24.00;42.70;;;;;;5020047;28;20464;-75
2023/07/01 01:57:26;;;;;;;1.70;1.60;;;24.00;42.80;;;;;;5017258;28;21290;-77
2023/07/01 01:59:52;;;;;;;1.87;1.77;;;24.00;42.70;;;;;;5012122;28;20460;-78
2023/07/01 02:02:17;;;;;;;1.73;1.63;;;24.00;42.70;;;;;;5020444;28;20604;-77
2023/07/01 02:04:43;;;;;;;1.73;1.60;;;24.00;42.80;;;;;;5020796;28;20231;-77
2023/07/01 02:07:08;;;;;;;1.77;1.67;;;24.00;42.70;;;;;;5016353;28;20372;-77
2023/07/01 02:09:34;;;;;;;1.70;1.60;;;24.00;42.70;;;;;;5018495;28;20829;-77
2023/07/01 02:12:00;;;;;;;1.70;1.60;;;24.00;42.70;;;;;;5012545;28;20218;-76
2023/07/01 02:14:25;;;;;;;1.70;1.60;;;24.00;42.70;;;;;;5012797;28;20322;-77
2023/07/01 02:16:54;;;;;;;2.00;1.90;;;24.00;42.70;;;;;;5020681;28;20250;-77
2023/07/01 02:19:20;;;;;;;1.30;1.20;;;24.00;42.70;;;;;;5006709;28;20246;-77
2023/07/01 02:21:45;;;;;;;1.73;1.50;;;24.00;42.70;;;;;;5019781;28;20559;-77
2023/07/01 02:24:11;;;;;;;1.70;1.60;;;24.00;42.80;;;;;;5013312;28;20728;-77
2023/07/01 02:26:36;;;;;;;1.80;1.70;;;24.00;42.70;;;;;;5009598;28;20727;-77
2023/07/01 02:29:05;;;;;;;1.60;1.50;;;24.00;42.70;;;;;;5002332;28;20239;-76
2023/07/01 02:31:30;;;;;;;1.90;1.80;;;24.00;42.70;;;;;;5018711;28;20244;-77
2023/07/01 02:34:02;;;;;;;1.70;1.60;;;24.00;42.70;;;;;;5013251;28;21002;-77
2023/07/01 02:36:31;;;;;;;1.90;1.80;;;24.00;42.70;;;;;;5021197;28;20304;-77
2023/07/01 02:38:57;;;;;;;1.60;1.50;;;24.00;42.70;;;;;;5009243;28;20798;-77
2023/07/01 02:41:22;;;;;;;1.73;1.63;;;24.00;42.70;;;;;;5010142;28;20514;-77
2023/07/01 02:43:48;;;;;;;1.77;1.67;;;24.00;42.70;;;;;;5028363;28;20230;-77
2023/07/01 02:46:13;;;;;;;1.80;1.70;;;24.00;42.80;;;;;;5018655;28;20309;-77
2023/07/01 02:48:39;;;;;;;1.57;1.47;;;24.00;42.70;;;;;;5019349;28;20234;-77
2023/07/01 02:51:07;;;;;;;1.77;1.53;;;24.00;42.70;;;;;;5008499;28;20217;-77
2023/07/01 02:53:33;;;;;;;1.87;1.77;;;24.00;42.70;;;;;;5007871;28;20613;-77
2023/07/01 02:55:58;;;;;;;1.50;1.40;;;24.00;42.70;;;;;;5000641;28;20491;-76
2023/07/01 02:58:24;;;;;;;1.70;1.60;;;24.00;42.70;;;;;;5021663;28;20223;-79
2023/07/01 03:00:50;;;;;;;1.77;1.67;;;24.00;42.70;;;;;;4998746;28;20693;-77
2023/07/01 03:03:16;;;;;;;1.70;1.60;;;24.00;42.70;;;;;;5000088;28;20550;-77
2023/07/01 03:05:42;;;;;;;1.50;1.40;;;24.00;42.70;;;;;;5020765;28;20234;-77
2023/07/01 03:08:07;;;;;;;1.77;1.67;;;24.00;42.70;;;;;;5026538;28;20456;-77
2023/07/01 03:10:34;;;;;;;1.70;1.60;;;24.00;42.80;;;;;;5018212;28;20221;-77
2023/07/01 03:12:59;;;;;;;1.70;1.60;;;24.00;42.70;;;;;;5015244;28;20245;-77
2023/07/01 03:15:25;;;;;;;1.70;1.60;;;24.00;42.70;;;;;;5022390;28;20899;-77
2023/07/01 03:17:52;;;;;;;1.50;1.40;;;24.00;42.70;;;;;;5019300;28;20563;-77
2023/07/01 03:20:23;;;;;;;1.47;1.37;;;24.00;42.70;;;;;;5011860;28;20219;-77
2023/07/01 03:22:50;;;;;;;1.63;1.53;;;24.00;42.70;;;;;;5000875;28;20491;-77
2023/07/01 03:25:16;;;;;;;1.90;1.70;;;24.00;42.80;;;;;;4998069;28;20474;-77
2023/07/01 03:27:43;;;;;;;1.60;1.50;;;24.00;43.50;;;;;;5017070;28;20587;-77
2023/07/01 03:30:13;;;;;;;3.93;1.67;;;24.00;42.70;;;;;;4999757;28;20491;-77
2023/07/01 03:32:46;;;;;;;1.57;1.40;;;24.00;42.80;;;;;;5000828;28;20495;-77
2023/07/01 03:35:13;;;;;;;1.70;1.60;;;24.00;42.70;;;;;;5020926;28;20467;-77
2023/07/01 03:37:41;;;;;;;1.73;1.63;;;24.00;42.60;;;;;;5021330;28;20496;-77
2023/07/01 03:40:13;;;;;;;1.90;1.80;;;24.00;42.60;;;;;;5014898;28;21303;-77
2023/07/01 03:42:40;;;;;;;1.60;1.50;;;24.00;42.40;;;;;;5007279;28;20469;-77
2023/07/01 03:45:07;;;;;;;1.60;1.50;;;24.00;42.30;;;;;;5011517;28;20551;-78
2023/07/01 03:47:43;;;;;;;1.70;1.60;;;24.00;42.20;;;;;;5017457;28;20506;-77
2023/07/01 03:50:09;;;;;;;1.73;1.60;;;24.00;42.20;;;;;;5012111;28;20479;-77
2023/07/01 03:52:38;;;;;;;1.60;1.50;;;24.00;42.10;;;;;;5026464;28;20495;-77
2023/07/01 03:55:05;;;;;;;1.50;1.40;;;24.00;42.10;;;;;;5016959;28;20490;-77
2023/07/01 03:57:32;;;;;;;1.50;1.40;;;24.00;42.10;;;;;;5018311;28;20440;-77
2023/07/01 03:59:58;;;;;;;1.50;1.40;;;24.00;42.00;;;;;;5014464;28;20447;-75
2023/07/01 04:02:23;;;;;;;1.53;1.43;;;24.00;42.10;;;;;;5015493;28;21068;-78
2023/07/01 04:04:49;;;;;;;1.70;1.60;;;24.00;42.10;;;;;;5012399;28;20226;-77
2023/07/01 04:07:15;;;;;;;1.67;1.57;;;24.00;42.10;;;;;;5014099;28;20693;-77
2023/07/01 04:09:41;;;;;;;1.70;1.60;;;24.00;42.20;;;;;;5018345;28;20693;-77
2023/07/01 04:12:07;;;;;;;1.43;1.33;;;24.00;42.30;;;;;;5014567;28;20467;-77
2023/07/01 04:14:33;;;;;;;1.80;1.70;;;24.00;42.30;;;;;;5017684;28;20218;-77
2023/07/01 04:16:59;;;;;;;1.60;1.50;;;24.00;42.30;;;;;;5013433;28;20218;-77
2023/07/01 04:19:24;;;;;;;1.60;1.50;;;24.00;42.30;;;;;;5028894;28;20459;-77
2023/07/01 04:21:50;;;;;;;1.57;1.47;;;24.00;42.20;;;;;;5023890;28;20226;-77
2023/07/01 04:24:15;;;;;;;1.70;1.60;;;24.00;42.20;;;;;;5013581;28;20254;-77
2023/07/01 04:26:44;;;;;;;1.73;1.40;;;24.00;42.10;;;;;;5014407;28;20738;-77
2023/07/01 04:29:10;;;;;;;1.80;1.70;;;24.00;42.00;;;;;;5000505;28;20234;-79
2023/07/01 04:31:35;;;;;;;1.70;1.60;;;24.00;41.90;;;;;;5005097;28;20514;-78
2023/07/01 04:34:01;;;;;;;1.60;1.50;;;24.00;41.90;;;;;;5018601;28;20562;-78
2023/07/01 04:36:27;;;;;;;1.63;1.53;;;23.90;41.70;;;;;;5004355;28;20226;-78
2023/07/01 04:38:52;;;;;;;1.57;1.47;;;24.00;41.70;;;;;;5018069;28;20222;-78
2023/07/01 04:41:18;;;;;;;1.50;1.40;;;24.00;41.60;;;;;;5010121;28;20694;-78
2023/07/01 04:43:44;;;;;;;2.27;1.80;;;24.00;41.50;;;;;;5016206;28;20230;-78
2023/07/01 04:46:09;;;;;;;1.67;1.57;;;24.00;41.30;;;;;;5017121;28;20245;-78
2023/07/01 04:48:35;;;;;;;1.93;1.73;;;24.00;41.20;;;;;;5016031;28;20230;-78
2023/07/01 04:51:00;;;;;;;2.40;1.43;;;24.00;41.00;;;;;;5019650;28;20286;-78
2023/07/01 04:53:26;;;;;;;1.70;1.60;;;24.00;40.90;;;;;;5006290;28;21380;-78
2023/07/01 04:55:51;;;;;;;1.60;1.50;;;24.00;40.80;;;;;;5000553;28;20227;-78
2023/07/01 04:58:17;;;;;;;1.87;1.77;;;24.00;40.70;;;;;;4999664;28;20278;-78
2023/07/01 05:00:42;;;;;;;1.90;1.80;;;24.00;40.70;;;;;;4996806;28;20242;-78
2023/07/01 05:03:08;;;;;;;1.73;1.63;;;24.00;40.60;;;;;;4994563;28;20226;-77
2023/07/01 05:05:33;;;;;;;2.27;2.07;;;24.00;40.50;;;;;;5006908;28;20223;-78
2023/07/01 05:07:59;;;;;;;4.10;1.63;;;24.00;40.40;;;;;;5008787;28;20276;-78
2023/07/01 05:10:24;;;;;;;1.93;1.47;;;24.00;40.30;;;;;;5011972;28;20238;-78
2023/07/01 05:12:50;;;;;;;1.50;1.40;;;24.00;40.30;;;;;;5016512;28;20593;-78
2023/07/01 05:15:17;;;;;;;1.80;1.70;;;24.00;40.20;;;;;;5016102;28;20309;-78
2023/07/01 05:17:43;;;;;;;2.23;1.40;;;24.00;40.10;;;;;;5019721;28;20471;-78
2023/07/01 05:20:10;;;;;;;1.67;1.57;;;24.00;40.00;;;;;;5019722;28;20475;-78
2023/07/01 05:22:36;;;;;;;1.80;1.70;;;24.00;40.00;;;;;;5020992;28;20670;-78
2023/07/01 05:25:02;;;;;;;1.53;1.43;;;24.00;39.80;;;;;;5018987;28;20476;-78
2023/07/01 05:27:28;;;;;;;1.60;1.50;;;24.00;39.80;;;;;;5020518;28;20480;-78
2023/07/01 05:29:53;;;;;;;1.60;1.50;;;24.00;39.80;;;;;;5007045;28;20234;-78
2023/07/01 05:32:19;;;;;;;1.53;1.40;;;24.00;39.80;;;;;;5022388;28;20279;-78
2023/07/01 05:34:44;;;;;;;1.80;1.70;;;24.00;39.60;;;;;;5022519;28;20242;-78
2023/07/01 05:37:10;;;;;;;1.60;1.50;;;24.00;39.60;;;;;;5014484;28;20244;-78
2023/07/01 05:39:36;;;;;;;2.17;2.07;;;24.00;39.70;;;;;;5023489;28;20214;-78
2023/07/01 05:42:01;;;;;;;1.70;1.60;;;24.00;39.60;;;;;;5019110;28;20254;-78
2023/07/01 05:44:27;;;;;;;1.77;1.40;;;24.00;39.50;;;;;;5010873;28;20250;-78
2023/07/01 05:46:53;;;;;;;1.73;1.63;;;24.00;39.50;;;;;;5011046;28;20230;-77
2023/07/01 05:49:18;;;;;;;1.70;1.60;;;24.00;39.50;;;;;;5013532;28;20250;-78
2023/07/01 05:51:44;;;;;;;1.40;1.30;;;24.00;39.50;;;;;;5012746;28;20456;-78
2023/07/01 05:54:09;;;;;;;1.53;1.43;;;24.00;39.50;;;;;;5017372;28;20219;-78
2023/07/01 05:56:35;;;;;;;1.50;1.40;;;24.00;39.40;;;;;;5005228;28;20226;-78
2023/07/01 05:59:01;;;;;;;2.70;1.57;;;24.00;39.40;;;;;;5015194;28;20229;-77
2023/07/01 06:01:28;;;;;;;1.60;1.50;;;24.00;39.50;;;;;;5021568;28;20828;-78
2023/07/01 06:03:53;;;;;;;1.70;1.60;;;24.00;39.30;;;;;;5009466;28;20219;-78
2023/07/01 06:06:19;;;;;;;1.97;1.87;;;24.00;39.40;;;;;;5012808;28;20447;-78
2023/07/01 06:08:45;;;;;;;1.97;1.60;;;24.00;39.30;;;;;;5018418;28;20596;-75
2023/07/01 06:11:11;;;;;;;1.70;1.60;;;24.00;39.30;;;;;;5023396;28;20728;-76
2023/07/01 06:13:37;;;;;;;1.60;1.50;;;24.00;39.30;;;;;;5011258;28;20575;-75
2023/07/01 06:16:03;;;;;;;1.47;1.37;;;24.00;39.40;;;;;;5017733;28;20293;-75
2023/07/01 06:18:29;;;;;;;1.80;1.70;;;24.00;39.40;;;;;;5015058;28;20538;-75
2023/07/01 06:20:55;;;;;;;1.57;1.47;;;24.00;39.50;;;;;;5023524;28;20453;-76
2023/07/01 06:23:21;;;;;;;1.40;1.30;;;24.00;39.50;;;;;;5011965;28;20276;-75
2023/07/01 06:25:46;;;;;;;1.60;1.50;;;24.00;39.60;;;;;;5010514;28;20477;-76
2023/07/01 06:28:12;;;;;;;1.50;1.40;;;24.10;39.70;;;;;;5008023;28;20588;-76
2023/07/01 06:30:37;;;;;;;1.63;1.53;;;24.00;39.70;;;;;;5009774;28;20321;-76
2023/07/01 06:33:03;;;;;;;1.77;1.67;;;24.00;39.70;;;;;;5014277;28;20224;-76
2023/07/01 06:35:28;;;;;;;1.40;1.30;;;24.00;39.70;;;;;;5010435;28;20297;-75
2023/07/01 06:37:54;;;;;;;1.73;1.63;;;24.00;39.80;;;;;;5019768;28;20233;-76
2023/07/01 06:40:19;;;;;;;1.53;1.43;;;24.00;39.80;;;;;;5011751;28;20598;-76
2023/07/01 06:42:46;;;;;;;1.90;1.70;;;24.10;39.90;;;;;;5013860;28;20219;-77
2023/07/01 06:45:11;;;;;;;1.80;1.70;;;24.10;39.90;;;;;;5012380;28;20222;-76
2023/07/01 06:47:37;;;;;;;1.53;1.43;;;24.00;39.80;;;;;;5019084;28;20808;-78
2023/07/01 06:50:03;;;;;;;1.40;1.30;;;24.10;40.00;;;;;;5002581;28;20234;-77
2023/07/01 06:52:28;;;;;;;1.60;1.33;;;24.00;39.90;;;;;;5005761;28;20228;-75
2023/07/01 06:54:54;;;;;;;1.10;1.00;;;24.00;39.90;;;;;;5006180;28;20215;-74
2023/07/01 06:57:19;;;;;;;1.60;1.47;;;24.10;40.00;;;;;;5005126;28;20222;-75
2023/07/01 06:59:45;;;;;;;1.60;1.50;;;24.10;40.00;;;;;;5002584;28;20241;-77
2023/07/01 07:02:10;;;;;;;1.80;1.70;;;24.10;40.00;;;;;;5011552;28;20273;-75
2023/07/01 07:04:37;;;;;;;1.63;1.53;;;24.10;39.90;;;;;;5013033;28;21232;-76
2023/07/01 07:07:02;;;;;;;2.37;1.53;;;24.20;40.00;;;;;;5015588;28;20727;-79
2023/07/01 07:09:28;;;;;;;2.10;1.30;;;24.30;40.00;;;;;;5012093;28;20464;-78
2023/07/01 07:11:55;;;;;;;1.63;1.40;;;24.30;40.00;;;;;;5003150;28;20682;-79
2023/07/01 07:14:21;;;;;;;2.87;1.30;;;24.30;40.10;;;;;;4996360;28;20218;-78
2023/07/01 07:16:47;;;;;;;3.93;1.50;;;24.30;40.20;;;;;;5004631;28;20542;-79
2023/07/01 07:19:14;;;;;;;2.00;1.33;;;24.30;40.30;;;;;;5003065;28;20995;-77
2023/07/01 07:21:39;;;;;;;1.20;1.10;;;24.30;40.20;;;;;;5003429;28;20300;-77
2023/07/01 07:24:05;;;;;;;1.40;1.30;;;24.30;40.20;;;;;;5005116;28;20562;-81
2023/07/01 07:26:31;;;;;;;1.40;1.30;;;24.30;40.20;;;;;;5016732;28;20234;-78
2023/07/01 07:28:56;;;;;;;1.30;1.20;;;24.30;40.30;;;;;;5002582;28;20235;-78
2023/07/01 07:31:22;;;;;;;1.50;1.40;;;24.30;40.30;;;;;;4986027;28;21174;-78
2023/07/01 07:33:47;;;;;;;1.40;1.30;;;24.30;40.50;;;;;;5000097;28;20226;-78
2023/07/01 07:36:13;;;;;;;3.53;1.70;;;24.30;40.60;;;;;;4993906;28;20226;-77
2023/07/01 07:38:38;;;;;;;1.50;1.40;;;24.30;40.80;;;;;;5000955;28;20273;-77
2023/07/01 07:41:04;;;;;;;1.67;1.57;;;24.20;40.70;;;;;;5002397;28;20241;-77
2023/07/01 07:43:29;;;;;;;1.40;1.30;;;24.20;40.80;;;;;;5001268;28;20220;-77
2023/07/01 07:45:55;;;;;;;1.97;1.77;;;24.30;40.90;;;;;;4995745;28;20297;-77
2023/07/01 07:48:20;;;;;;;1.60;1.50;;;24.20;41.00;;;;;;5002924;28;20250;-79
2023/07/01 07:50:46;;;;;;;1.27;1.17;;;24.20;41.00;;;;;;5003836;28;20218;-77
2023/07/01 07:53:13;;;;;;;1.47;1.37;;;24.20;41.10;;;;;;4992715;28;20220;-76
2023/07/01 07:55:40;;;;;;;2.10;1.40;;;24.20;41.10;;;;;;5008734;28;20211;-78
2023/07/01 07:58:05;;;;;;;1.47;1.37;;;24.20;41.10;;;;;;5011347;28;20462;-75
2023/07/01 08:00:31;;;;;;;1.47;1.37;;;24.20;41.20;;;;;;5000807;28;20461;-81
2023/07/01 08:02:57;;;;;;;1.53;1.43;;;24.20;41.20;;;;;;5008058;28;20245;-77
2023/07/01 08:05:24;;;;;;;1.20;1.10;;;24.20;41.30;;;;;;5000889;28;22177;-77
2023/07/01 08:07:50;;;;;;;1.40;1.30;;;24.20;41.30;;;;;;5003518;28;20215;-78
2023/07/01 08:10:16;;;;;;;1.50;1.40;;;24.20;41.40;;;;;;4997874;28;21074;-79
2023/07/01 08:12:42;;;;;;;1.30;1.20;;;24.10;41.30;;;;;;4980599;28;21894;-79
2023/07/01 08:15:09;;;;;;;1.40;1.30;;;24.10;41.40;;;;;;5003669;28;20550;-79
2023/07/01 08:17:35;;;;;;;2.40;1.23;;;24.10;41.40;;;;;;5007428;28;20364;-78
2023/07/01 08:20:00;;;;;;;1.20;1.10;;;24.10;41.30;;;;;;4991976;28;20988;-78
2023/07/01 08:22:26;;;;;;;1.40;1.30;;;24.10;41.40;;;;;;4999118;28;21058;-78
2023/07/01 08:24:51;;;;;;;1.30;1.20;;;24.10;42.30;;;;;;5012119;28;20298;-79
2023/07/01 08:27:17;;;;;;;2.50;1.40;;;24.20;41.60;;;;;;5008936;28;20260;-78
2023/07/01 08:29:42;;;;;;;1.40;1.30;;;24.10;41.60;;;;;;5007016;28;20230;-79
2023/07/01 08:32:10;;;;;;;1.50;1.40;;;24.10;41.60;;;;;;4995803;28;20222;-77
2023/07/01 08:34:36;;;;;;;1.40;1.30;;;24.10;41.70;;;;;;4988876;28;20221;-77
2023/07/01 08:37:01;;;;;;;2.57;1.43;;;24.10;41.80;;;;;;5015962;28;20452;-80
2023/07/01 08:39:27;;;;;;;1.40;1.30;;;24.10;41.80;;;;;;5004698;28;20494;-79
2023/07/01 08:41:59;;;;;;;1.83;1.40;;;24.10;41.80;;;;;;5009202;28;20599;-80
2023/07/01 08:44:25;;;;;;;1.20;1.10;;;24.20;41.90;;;;;;4999016;28;20582;-79
2023/07/01 08:46:55;;;;;;;1.70;1.60;;;24.10;41.90;;;;;;4999136;28;20522;-81
2023/07/01 08:49:22;;;;;;;1.40;1.30;;;24.10;41.90;;;;;;4999689;28;21005;-81
2023/07/01 08:51:51;;;;;;;1.00;0.90;;;24.20;42.20;;;;;;5015017;28;20482;-80
2023/07/01 08:54:17;;;;;;;1.53;1.43;;;24.10;41.90;;;;;;4995754;28;20479;-80
2023/07/01 08:56:46;;;;;;;1.30;1.20;;;24.10;42.00;;;;;;4992203;28;20468;-80
2023/07/01 08:59:14;;;;;;;1.00;0.90;;;24.20;42.10;;;;;;4994522;28;20652;-79
2023/07/01 09:01:42;;;;;;;1.10;1.00;;;24.20;42.10;;;;;;5003350;28;20464;-79
2023/07/01 09:04:08;;;;;;;1.43;1.20;;;24.20;42.20;;;;;;5003434;28;20983;-78
2023/07/01 09:06:34;;;;;;;1.50;1.40;;;24.20;42.20;;;;;;5005533;28;20470;-77
2023/07/01 09:09:01;;;;;;;1.33;1.23;;;24.20;42.30;;;;;;5013822;28;20235;-78
2023/07/01 09:11:27;;;;;;;47.30;4.87;;;24.10;42.20;;;;;;5010705;28;20973;-76
2023/07/01 09:13:56;;;;;;;2.80;1.60;;;24.10;42.30;;;;;;5011421;28;20450;-77
2023/07/01 09:16:35;;;;;;;2.23;1.30;;;24.10;42.30;;;;;;5019129;28;20577;-78
2023/07/01 09:19:16;;;;;;;15.33;4.30;;;24.10;42.40;;;;;;4988343;28;20449;-72
2023/07/01 09:21:43;;;;;;;26.10;10.73;;;24.10;42.40;;;;;;5001415;28;20487;-75
2023/07/01 09:24:12;;;;;;;44.30;9.63;;;24.10;42.60;;;;;;5000428;28;20464;-74
2023/07/01 09:26:38;;;;;;;48.50;10.50;;;24.20;42.70;;;;;;5017700;28;20576;-75
2023/07/01 09:29:12;;;;;;;45.70;11.23;;;24.20;42.60;;;;;;5015235;28;21129;-75
2023/07/01 09:31:49;;;;;;;77.27;17.07;;;24.20;42.70;;;;;;5013712;28;20222;-76
2023/07/01 09:34:16;;;;;;;82.17;16.97;;;24.20;42.90;;;;;;5013899;28;20860;-78
2023/07/01 09:36:42;;;;;;;74.30;15.60;;;24.20;42.90;;;;;;5019392;28;21469;-76
2023/07/01 09:39:08;;;;;;;135.57;28.43;;;24.30;43.00;;;;;;5013565;28;20487;-77
2023/07/01 09:41:34;;;;;;;56.57;17.27;;;24.30;43.00;;;;;;5014057;28;20492;-78
2023/07/01 09:44:00;;;;;;;78.63;18.60;;;24.30;43.00;;;;;;5004832;28;20596;-78
2023/07/01 09:46:49;;;;;;;88.00;18.50;;;24.30;43.00;;;;;;5025893;28;20822;-76
2023/07/01 09:49:14;;;;;;;65.03;16.90;;;24.30;43.00;;;;;;5011230;28;20504;-78
2023/07/01 09:51:48;;;;;;;42.37;10.97;;;24.30;43.00;;;;;;5011252;28;20965;-80
2023/07/01 09:54:28;;;;;;;43.07;12.60;;;24.30;43.00;;;;;;5014774;28;20248;-74
2023/07/01 09:56:56;;;;;;;42.30;12.03;;;24.30;43.00;;;;;;5003836;28;20788;-78
2023/07/01 09:59:22;;;;;;;43.03;11.73;;;24.30;43.00;;;;;;5006866;28;20667;-80
2023/07/01 10:02:02;;;;;;;33.43;12.10;;;24.30;43.00;;;;;;5000109;28;21209;-81
2023/07/01 10:04:28;;;;;;;37.57;13.40;;;24.30;43.00;;;;;;5019726;28;20455;-81
2023/07/01 10:06:54;;;;;;;35.23;11.50;;;24.30;43.00;;;;;;5003725;28;20986;-80
2023/07/01 10:09:23;;;;;;;32.27;10.67;;;24.20;42.90;;;;;;5004811;28;20479;-81
2023/07/01 10:11:52;;;;;;;25.27;9.87;;;24.20;42.90;;;;;;5016164;28;20257;-80
2023/07/01 10:14:21;;;;;;;24.63;9.83;;;24.20;42.90;;;;;;5012867;28;20525;-80
2023/07/01 10:16:47;;;;;;;17.77;9.33;;;24.20;43.00;;;;;;5021083;28;20496;-80
2023/07/01 10:19:33;;;;;;;28.67;9.63;;;24.30;43.10;;;;;;5012327;28;20554;-80
2023/07/01 10:22:24;;;;;;;24.97;8.30;;;24.20;43.10;;;;;;5006803;28;21290;-80
2023/07/01 10:24:57;;;;;;;20.30;8.17;;;24.20;43.10;;;;;;5011987;28;20483;-80
2023/07/01 10:27:41;;;;;;;21.73;7.37;;;24.20;43.20;;;;;;5007768;28;20469;-79
2023/07/01 10:30:12;;;;;;;19.30;7.30;;;24.20;43.10;;;;;;5004352;28;20467;-80
2023/07/01 10:32:37;;;;;;;13.93;7.60;;;24.20;43.20;;;;;;5011148;28;20478;-80
2023/07/01 10:35:03;;;;;;;14.13;6.70;;;24.20;43.30;;;;;;5006845;28;23691;-80
2023/07/01 10:37:30;;;;;;;14.90;5.97;;;24.20;43.30;;;;;;5013484;28;20254;-80
2023/07/01 10:39:58;;;;;;;20.10;7.47;;;24.20;43.30;;;;;;5009092;28;20227;-80
2023/07/01 10:42:33;;;;;;;11.07;5.90;;;24.20;43.30;;;;;;5013047;28;20514;-80
2023/07/01 10:45:11;;;;;;;15.27;6.60;;;24.20;43.30;;;;;;5010998;28;21139;-80
2023/07/01 10:47:43;;;;;;;11.23;5.63;;;24.20;43.30;;;;;;5008303;28;20481;-79
2023/07/01 10:50:10;;;;;;;13.00;6.50;;;24.10;43.20;;;;;;5017481;28;20468;-79
2023/07/01 10:52:55;;;;;;;12.10;6.20;;;24.20;43.30;;;;;;5022477;28;21006;-79
2023/07/01 10:55:49;;;;;;;16.43;5.60;;;24.10;43.20;;;;;;5025448;28;20443;-78
2023/07/01 10:58:23;;;;;;;10.80;4.90;;;24.20;43.30;;;;;;5014912;28;21248;-79
2023/07/01 11:00:56;;;;;;;11.87;5.20;;;24.10;43.30;;;;;;5011524;28;20467;-78
2023/07/01 11:03:34;;;;;;;8.17;4.20;;;24.20;43.40;;;;;;5018267;28;21353;-78
2023/07/01 11:06:06;;;;;;;6.70;4.67;;;24.10;43.30;;;;;;5002802;28;20481;-79
2023/07/01 11:08:56;;;;;;;8.20;4.87;;;24.10;43.30;;;;;;5010797;28;20456;-79
2023/07/01 11:11:27;;;;;;;4.20;2.17;;;24.10;43.40;;;;;;5001053;28;20452;-79
2023/07/01 11:13:55;;;;;;;6.87;4.57;;;24.10;43.30;;;;;;5015437;28;20448;-78
2023/07/01 11:16:21;;;;;;;7.80;4.30;;;24.10;43.30;;;;;;5014469;28;20443;-78
2023/07/01 11:18:49;;;;;;;6.43;3.90;;;24.10;43.20;;;;;;5007515;28;20460;-77
2023/07/01 11:21:18;;;;;;;5.00;3.93;;;24.20;43.40;;;;;;5000198;28;21528;-78
2023/07/01 11:23:53;;;;;;;4.70;3.13;;;24.20;43.40;;;;;;5009463;28;20456;-77
2023/07/01 11:26:21;;;;;;;6.73;4.10;;;24.20;43.50;;;;;;5012533;28;20482;-77
2023/07/01 11:28:47;;;;;;;8.67;3.43;;;24.10;43.50;;;;;;5024422;28;20915;-78
2023/07/01 11:31:17;;;;;;;5.97;4.23;;;24.10;43.40;;;;;;5000999;28;20467;-77
2023/07/01 11:33:44;;;;;;;7.70;4.10;;;24.10;43.40;;;;;;5008679;28;20222;-77
2023/07/01 11:36:11;;;;;;;8.30;3.07;;;24.10;43.40;;;;;;5012952;28;20470;-77
2023/07/01 11:38:37;;;;;;;5.50;2.90;;;24.10;43.50;;;;;;5018781;28;21362;-76
2023/07/01 11:41:03;;;;;;;3.70;2.70;;;24.10;43.50;;;;;;5011871;28;20456;-77
2023/07/01 11:43:28;;;;;;;3.73;3.03;;;24.10;43.60;;;;;;5017356;28;20682;-77
2023/07/01 11:45:55;;;;;;;10.97;4.10;;;24.10;43.50;;;;;;5009503;28;20246;-77
2023/07/01 11:48:31;;;;;;;6.90;3.22;;;24.10;43.60;;;;;;5002100;28;20934;-75
2023/07/01 11:50:57;;;;;;;1.50;1.40;;;24.10;43.70;;;;;;5017595;28;20268;-74
2023/07/01 11:53:22;;;;;;;53.97;3.50;;;24.20;43.50;;;;;;5022898;28;20977;-74
2023/07/01 11:55:48;;;;;;;16.10;3.10;;;24.30;43.40;;;;;;5004510;28;20219;-75
2023/07/01 11:58:34;;;;;;;4.20;1.70;;;24.30;43.30;;;;;;4998560;28;20259;-75
2023/07/01 12:00:59;;;;;;;4.20;2.30;;;24.30;43.10;;;;;;5005180;28;20733;-74
2023/07/01 12:03:32;;;;;;;4.20;1.77;;;24.30;43.20;;;;;;5007330;28;20521;-74
2023/07/01 12:05:57;;;;;;;2.33;1.50;;;24.30;43.30;;;;;;5016930;28;20697;-74
2023/07/01 12:08:23;;;;;;;2.87;1.90;;;24.30;43.50;;;;;;5018905;28;20452;-72
2023/07/01 12:10:49;;;;;;;3.73;1.87;;;24.20;43.50;;;;;;5008379;28;20245;-73
2023/07/01 12:13:31;;;;;;;6.97;1.90;;;24.20;43.50;;;;;;5002269;28;20999;-73
2023/07/01 12:15:58;;;;;;;4.30;2.33;;;24.20;43.60;;;;;;4999464;28;20687;-73
2023/07/01 12:18:29;;;;;;;1.10;1.00;;;24.20;43.60;;;;;;5005361;28;22236;-74
2023/07/01 12:20:55;;;;;;;4.80;1.40;;;24.20;43.40;;;;;;5006402;28;20538;-74
2023/07/01 12:23:21;;;;;;;1.43;1.33;;;24.20;43.40;;;;;;5014999;28;20955;-73
2023/07/01 12:25:47;;;;;;;1.87;1.03;;;24.20;43.30;;;;;;5007496;28;20471;-73
2023/07/01 12:28:12;;;;;;;1.03;0.93;;;24.30;43.00;;;;;;5010406;28;20261;-74
2023/07/01 12:30:38;;;;;;;2.03;0.90;;;24.30;43.00;;;;;;5014659;28;20223;-73
2023/07/01 12:33:04;;;;;;;3.43;0.93;;;24.30;43.00;;;;;;5019261;28;20300;-73
2023/07/01 12:35:29;;;;;;;2.40;1.23;;;24.30;43.00;;;;;;5013142;28;20309;-73
2023/07/01 12:37:58;;;;;;;2.27;1.10;;;24.30;43.00;;;;;;5006252;28;21253;-74
2023/07/01 12:40:27;;;;;;;2.90;0.90;;;24.30;43.00;;;;;;5005176;28;20239;-74
2023/07/01 12:42:54;;;;;;;1.67;1.00;;;24.30;43.00;;;;;;5008067;28;20540;-74
2023/07/01 12:45:20;;;;;;;1.87;1.30;;;24.30;43.00;;;;;;5011510;28;20472;-74
2023/07/01 12:47:45;;;;;;;1.53;1.00;;;24.30;43.00;;;;;;5013065;28;20499;-74